Time,TemperatureF,DewpointF,PressureIn,WindDirection,WindDirectionDegrees,WindSpeedMPH,WindSpeedGustMPH,Humidity,HourlyPrecipIn,Conditions,Clouds,dailyrainin,SoftwareType,DateUTC
2013-06-26 00:11:00,58.0,-99.9,-100.00,SSE,152,9.0,-999.0,-999,-99.99,,,-99.99,,2013-06-26 07:11:00,
2013-06-26 00:20:00,58.0,-99.9,-100.00,SE,137,10.0,-999.0,-999,-99.99,,,-99.99,,2013-06-26 07:20:00,
2013-06-26 01:11:00,58.0,-99.9,-100.00,SE,137,10.0,-999.0,-999,-99.99,,,-99.99,,2013-06-26 08:11:00,
2013-06-26 01:20:00,57.0,-99.9,-100.00,NE,49,0.0,-999.0,-999,-99.99,,,-99.99,,2013-06-26 08:20:00,
2013-06-26 02:11:00,57.0,-99.9,-100.00,NE,49,0.0,-999.0,-999,-99.99,,,-99.99,,2013-06-26 09:11:00,
2013-06-26 02:20:00,58.0,-99.9,-100.00,SW,230,3.0,-999.0,-999,-99.99,,,-99.99,,2013-06-26 09:20:00,
2013-06-26 03:01:00,58.0,-99.9,-100.00,SW,230,3.0,-999.0,-999,-99.99,,,-99.99,,2013-06-26 10:01:00,
2013-06-26 03:12:00,58.0,-99.9,-100.00,SW,230,3.0,-999.0,-999,-99.99,,,-99.99,,2013-06-26 10:12:00,
2013-06-26 03:20:00,59.0,-99.9,-100.00,ESE,108,6.0,-999.0,-999,-99.99,,,-99.99,,2013-06-26 10:20:00,
2013-06-26 04:12:00,59.0,-99.9,-100.00,ESE,108,6.0,-999.0,-999,-99.99,,,-99.99,,2013-06-26 11:12:00,
2013-06-26 04:20:00,58.0,-99.9,-100.00,ENE,64,1.0,-999.0,-999,-99.99,,,-99.99,,2013-06-26 11:20:00,
2013-06-26 05:12:00,58.0,-99.9,-100.00,ENE,64,1.0,-999.0,-999,-99.99,,,-99.99,,2013-06-26 12:12:00,
2013-06-26 05:20:00,59.0,-99.9,-100.00,South,191,6.0,-999.0,-999,-99.99,,,-99.99,,2013-06-26 12:20:00,
2013-06-26 06:11:00,59.0,-99.9,-100.00,South,191,6.0,-999.0,-999,-99.99,,,-99.99,,2013-06-26 13:11:00,
2013-06-26 06:20:00,59.0,-99.9,-100.00,East,91,2.0,-999.0,-999,-99.99,,,-99.99,,2013-06-26 13:20:00,
2013-06-26 07:12:00,59.0,-99.9,-100.00,East,91,2.0,-999.0,-999,-99.99,,,-99.99,,2013-06-26 14:12:00,
2013-06-26 07:20:00,59.0,-99.9,-100.00,SSE,154,1.0,-999.0,-999,-99.99,,,-99.99,,2013-06-26 14:20:00,
2013-06-26 08:12:00,59.0,-99.9,-100.00,SSE,154,1.0,-999.0,-999,-99.99,,,-99.99,,2013-06-26 15:12:00,
2013-06-26 08:20:00,59.0,-99.9,-100.00,East,95,2.0,-999.0,-999,-99.99,,,-99.99,,2013-06-26 15:20:00,
2013-06-26 09:12:00,59.0,-99.9,-100.00,East,95,2.0,-999.0,-999,-99.99,,,-99.99,,2013-06-26 16:12:00,
2013-06-26 09:20:00,58.0,-99.9,-100.00,NNE,19,3.0,-999.0,-999,-99.99,,,-99.99,,2013-06-26 16:20:00,
2013-06-26 10:11:00,58.0,-99.9,-100.00,NNE,19,3.0,-999.0,-999,-99.99,,,-99.99,,2013-06-26 17:11:00,
2013-06-26 10:20:00,62.0,-99.9,-100.00,ESE,106,8.0,-999.0,-999,-99.99,,,-99.99,,2013-06-26 17:20:00,
2013-06-26 11:12:00,62.0,-99.9,-100.00,ESE,106,8.0,-999.0,-999,-99.99,,,-99.99,,2013-06-26 18:12:00,
2013-06-26 11:20:00,63.0,-99.9,-100.00,ESE,108,2.0,-999.0,-999,-99.99,,,-99.99,,2013-06-26 18:20:00,
2013-06-26 12:11:00,63.0,-99.9,-100.00,ESE,108,2.0,-999.0,-999,-99.99,,,-99.99,,2013-06-26 19:11:00,
2013-06-26 13:20:00,66.0,-99.9,-100.00,ENE,57,2.0,-999.0,-999,-99.99,,,-99.99,,2013-06-26 20:20:00,
2013-06-26 14:02:00,66.0,-99.9,-100.00,ENE,57,2.0,-999.0,-999,-99.99,,,-99.99,,2013-06-26 21:02:00,
2013-06-26 14:12:00,66.0,-99.9,-100.00,ENE,57,2.0,-999.0,-999,-99.99,,,-99.99,,2013-06-26 21:12:00,
2013-06-26 14:20:00,68.0,-99.9,-100.00,SE,129,3.0,-999.0,-999,-99.99,,,-99.99,,2013-06-26 21:20:00,
2013-06-26 15:11:00,68.0,-99.9,-100.00,SE,129,3.0,-999.0,-999,-99.99,,,-99.99,,2013-06-26 22:11:00,
2013-06-26 15:20:00,64.0,-99.9,-100.00,SW,219,10.0,-999.0,-999,-99.99,,,-99.99,,2013-06-26 22:20:00,
2013-06-26 16:02:00,64.0,-99.9,-100.00,SW,219,10.0,-999.0,-999,-99.99,,,-99.99,,2013-06-26 23:02:00,
2013-06-26 16:12:00,64.0,-99.9,-100.00,SW,219,10.0,-999.0,-999,-99.99,,,-99.99,,2013-06-26 23:12:00,
2013-06-26 16:20:00,67.0,-99.9,-100.00,SSE,159,6.0,-999.0,-999,-99.99,,,-99.99,,2013-06-26 23:20:00,
2013-06-26 17:01:00,67.0,-99.9,-100.00,SSE,159,6.0,-999.0,-999,-99.99,,,-99.99,,2013-06-27 00:01:00,
2013-06-26 17:12:00,67.0,-99.9,-100.00,SSE,159,6.0,-999.0,-999,-99.99,,,-99.99,,2013-06-27 00:12:00,
2013-06-26 17:20:00,69.0,-99.9,-100.00,South,188,10.0,-999.0,-999,-99.99,,,-99.99,,2013-06-27 00:20:00,
2013-06-26 18:11:00,69.0,-99.9,-100.00,South,188,10.0,-999.0,-999,-99.99,,,-99.99,,2013-06-27 01:11:00,
2013-06-26 18:20:00,69.0,-99.9,-100.00,SSW,197,13.0,-999.0,-999,-99.99,,,-99.99,,2013-06-27 01:20:00,
2013-06-26 19:11:00,69.0,-99.9,-100.00,SSW,197,13.0,-999.0,-999,-99.99,,,-99.99,,2013-06-27 02:11:00,
2013-06-26 19:20:00,67.0,-99.9,-100.00,SSW,202,14.0,-999.0,-999,-99.99,,,-99.99,,2013-06-27 02:20:00,
2013-06-26 20:11:00,67.0,-99.9,-100.00,SSW,202,14.0,-999.0,-999,-99.99,,,-99.99,,2013-06-27 03:11:00,
2013-06-26 20:20:00,65.0,-99.9,-100.00,SSW,201,17.0,-999.0,-999,-99.99,,,-99.99,,2013-06-27 03:20:00,
2013-06-26 21:11:00,65.0,-99.9,-100.00,SSW,201,17.0,-999.0,-999,-99.99,,,-99.99,,2013-06-27 04:11:00,
2013-06-26 21:20:00,64.0,-99.9,-100.00,SSE,153,7.0,-999.0,-999,-99.99,,,-99.99,,2013-06-27 04:20:00,
2013-06-26 22:12:00,64.0,-99.9,-100.00,SSE,153,7.0,-999.0,-999,-99.99,,,-99.99,,2013-06-27 05:12:00,
2013-06-26 22:20:00,62.0,-99.9,-100.00,ESE,106,1.0,-999.0,-999,-99.99,,,-99.99,,2013-06-27 05:20:00,
2013-06-26 23:12:00,62.0,-99.9,-100.00,ESE,106,1.0,-999.0,-999,-99.99,,,-99.99,,2013-06-27 06:12:00,
2013-06-26 23:20:00,62.0,-99.9,-100.00,North,8,3.0,-999.0,-999,-99.99,,,-99.99,,2013-06-27 06:20:00,